createdAt,value
2023-03-12T00:29:26.567Z,0
2023-03-12T00:30:06.883Z,0
2023-03-12T00:30:47.414Z,0
2023-03-12T00:35:31.110Z,0
2023-03-12T00:36:11.626Z,0
2023-03-12T00:36:52.082Z,0
2023-03-12T00:37:32.630Z,0
2023-03-12T00:38:13.154Z,0
2023-03-12T00:38:53.699Z,0
2023-03-12T00:39:34.149Z,0
2023-03-12T00:40:14.657Z,0
2023-03-12T00:40:55.165Z,0
2023-03-12T00:41:36.594Z,0
2023-03-12T00:49:01.118Z,0
2023-03-12T00:49:41.657Z,0
2023-03-12T00:50:22.149Z,0
2023-03-12T00:51:02.625Z,0
2023-03-12T00:51:43.131Z,0
2023-03-12T00:52:23.618Z,0
2023-03-12T00:53:04.164Z,0
2023-03-12T00:53:44.634Z,0
2023-03-12T00:54:25.129Z,0
2023-03-12T00:55:05.621Z,0
2023-03-12T01:02:31.006Z,0
2023-03-12T01:03:11.402Z,0
2023-03-12T01:03:52.105Z,0
2023-03-12T01:04:32.403Z,0
2023-03-12T01:05:12.924Z,0
2023-03-12T01:05:53.347Z,0
2023-03-12T01:06:33.829Z,0
2023-03-12T01:07:14.330Z,0
2023-03-12T01:07:54.818Z,0
2023-03-12T01:08:35.327Z,0
2023-03-12T01:14:00.739Z,0
2023-03-12T01:14:41.286Z,0
2023-03-12T01:15:21.965Z,0
2023-03-12T01:16:02.474Z,0
2023-03-12T01:16:43.372Z,0
2023-03-12T01:17:23.915Z,0
2023-03-12T01:18:04.385Z,0
2023-03-12T01:18:44.921Z,0
2023-03-12T01:19:25.420Z,0
2023-03-12T01:26:50.773Z,0
2023-03-12T01:27:31.297Z,0
2023-03-12T01:28:11.805Z,0
2023-03-12T01:28:52.276Z,0
2023-03-12T01:29:32.800Z,0
2023-03-12T01:30:13.277Z,0
2023-03-12T01:30:53.776Z,0
2023-03-12T01:31:34.326Z,0
2023-03-12T01:32:14.837Z,0
2023-03-12T01:32:55.294Z,0
2023-03-12T01:40:20.752Z,0
2023-03-12T01:41:01.229Z,0
2023-03-12T01:41:41.729Z,0
2023-03-12T01:42:22.202Z,0
2023-03-12T01:43:02.687Z,0
2023-03-12T01:43:43.222Z,0
2023-03-12T01:44:23.764Z,0
2023-03-12T01:45:04.241Z,0
2023-03-12T01:45:44.762Z,0
2023-03-12T01:46:25.248Z,0
2023-03-12T01:54:31.002Z,0
2023-03-12T01:55:11.536Z,0
2023-03-12T01:55:52.050Z,0
2023-03-12T01:56:32.501Z,0
2023-03-12T01:57:12.984Z,0
2023-03-12T01:57:53.516Z,0
2023-03-12T01:58:34.006Z,0
2023-03-12T01:59:14.467Z,0
2023-03-12T01:59:54.925Z,0
2023-03-12T02:00:35.369Z,0
2023-03-12T02:08:01.000Z,0
2023-03-12T02:08:41.480Z,0
2023-03-12T02:09:22.003Z,0
2023-03-12T02:10:02.483Z,0
2023-03-12T02:10:42.974Z,0
2023-03-12T02:11:23.464Z,0
2023-03-12T02:12:03.946Z,0
2023-03-12T02:12:44.446Z,0
2023-03-12T02:13:24.912Z,0
2023-03-12T02:21:30.788Z,0
2023-03-12T02:22:11.262Z,0
2023-03-12T02:22:51.770Z,0
2023-03-12T02:23:32.239Z,0
2023-03-12T02:24:12.725Z,0
2023-03-12T02:24:53.214Z,0
2023-03-12T02:25:33.685Z,0
2023-03-12T02:26:14.199Z,0
2023-03-12T02:26:54.709Z,0
2023-03-12T02:27:35.203Z,0
2023-03-12T02:28:15.718Z,0
2023-03-12T02:35:00.723Z,0
2023-03-12T02:35:41.237Z,0
2023-03-12T02:36:21.733Z,0
2023-03-12T02:37:02.188Z,0
2023-03-12T02:37:42.666Z,0
2023-03-12T02:38:23.141Z,0
2023-03-12T02:39:03.630Z,0
2023-03-12T02:39:44.136Z,0
2023-03-12T02:40:24.653Z,0
2023-03-12T02:41:05.168Z,0
2023-03-12T02:47:51.150Z,0
2023-03-12T02:48:31.653Z,0
2023-03-12T02:49:12.152Z,0
2023-03-12T02:49:52.632Z,0
2023-03-12T02:50:33.133Z,0
2023-03-12T02:51:13.596Z,0
2023-03-12T02:51:54.092Z,0
2023-03-12T02:52:34.577Z,0
2023-03-12T02:53:15.080Z,0
2023-03-12T02:53:55.582Z,0
2023-03-12T03:01:21.076Z,0
2023-03-12T03:02:01.534Z,0
2023-03-12T03:02:42.051Z,0
2023-03-12T03:03:22.525Z,0
2023-03-12T03:04:03.052Z,0
2023-03-12T03:05:24.034Z,0
2023-03-12T03:06:04.533Z,0
2023-03-12T03:06:45.004Z,0
2023-03-12T03:07:25.470Z,0
2023-03-12T03:14:50.962Z,0
2023-03-12T03:17:29.028Z,0
2023-03-12T03:18:09.513Z,0
2023-03-12T03:18:50.157Z,0
2023-03-12T03:24:13.940Z,0
2023-03-12T03:24:54.444Z,0
2023-03-12T03:25:34.931Z,0
2023-03-12T03:26:15.381Z,0
2023-03-12T03:26:55.879Z,0
2023-03-12T03:27:36.387Z,0
2023-03-12T03:28:16.894Z,0
2023-03-12T03:28:57.442Z,0
2023-03-12T03:29:37.873Z,0
2023-03-12T03:30:18.345Z,0
2023-03-12T03:30:58.896Z,0
2023-03-12T03:31:39.447Z,0
2023-03-12T03:37:03.303Z,0
2023-03-12T03:37:43.775Z,0
2023-03-12T03:38:24.262Z,0
2023-03-12T03:39:04.816Z,0
2023-03-12T03:39:45.262Z,0
2023-03-12T03:40:25.747Z,0
2023-03-12T03:41:06.163Z,0
2023-03-12T03:41:46.667Z,0
2023-03-12T03:42:27.155Z,0
2023-03-12T03:43:07.637Z,0
2023-03-12T03:50:33.011Z,0
2023-03-12T03:51:13.547Z,0
2023-03-12T03:51:54.022Z,0
2023-03-12T03:52:34.483Z,0
2023-03-12T03:53:14.992Z,0
2023-03-12T03:53:55.460Z,0
2023-03-12T03:55:16.420Z,0
2023-03-12T03:55:56.885Z,0
2023-03-12T03:56:37.352Z,0
2023-03-12T03:57:17.869Z,0
2023-03-12T04:04:43.251Z,0
2023-03-12T04:05:23.744Z,0
2023-03-12T04:06:04.207Z,0
2023-03-12T04:06:44.717Z,0
2023-03-12T04:07:25.175Z,0
2023-03-12T04:08:05.678Z,0
2023-03-12T04:08:46.144Z,0
2023-03-12T04:09:26.611Z,0
2023-03-12T04:10:07.125Z,0
2023-03-12T04:10:47.604Z,0
2023-03-12T04:18:53.405Z,0
2023-03-12T04:19:33.949Z,0
2023-03-12T04:20:14.363Z,0
2023-03-12T04:20:54.861Z,0
2023-03-12T04:21:35.354Z,0
2023-03-12T04:22:15.886Z,0
2023-03-12T04:22:56.354Z,0
2023-03-12T04:23:36.867Z,0
2023-03-12T04:24:17.316Z,0
2023-03-12T04:32:23.227Z,0
2023-03-12T04:33:03.685Z,0
2023-03-12T04:33:44.148Z,0
2023-03-12T04:34:24.621Z,0
2023-03-12T04:35:05.078Z,0
2023-03-12T04:35:45.605Z,0
2023-03-12T04:36:26.096Z,0
2023-03-12T04:37:06.563Z,0
2023-03-12T04:37:47.069Z,0
2023-03-12T04:38:27.585Z,0
2023-03-12T04:39:08.022Z,0
2023-03-12T04:46:33.514Z,0
2023-03-12T04:47:13.999Z,0
2023-03-12T04:47:54.453Z,0
2023-03-12T04:48:34.931Z,0
2023-03-12T04:49:15.358Z,0
2023-03-12T04:49:55.840Z,0
2023-03-12T04:50:36.320Z,0
2023-03-12T04:51:16.867Z,0
2023-03-12T04:51:57.278Z,0
2023-03-12T04:52:37.773Z,0
2023-03-12T05:00:03.174Z,0
2023-03-12T05:00:43.701Z,0
2023-03-12T05:01:24.180Z,0
2023-03-12T05:02:04.604Z,0
2023-03-12T05:02:45.138Z,0
2023-03-12T05:03:25.608Z,0
2023-03-12T05:04:06.171Z,0
2023-03-12T05:04:46.525Z,0
2023-03-12T05:05:27.004Z,0
2023-03-12T05:06:07.515Z,0
2023-03-12T05:06:47.950Z,0
2023-03-12T05:14:13.358Z,0
2023-03-12T05:14:53.884Z,0
2023-03-12T05:15:34.354Z,0
2023-03-12T05:16:14.899Z,0
2023-03-12T05:16:55.359Z,0
2023-03-12T05:17:35.824Z,0
2023-03-12T05:18:16.296Z,0
2023-03-12T05:18:56.822Z,0
2023-03-12T05:20:17.777Z,0
2023-03-12T05:27:43.056Z,0
2023-03-12T05:28:23.555Z,0
2023-03-12T05:29:04.008Z,0
2023-03-12T05:29:44.500Z,0
2023-03-12T05:30:24.988Z,0
2023-03-12T05:31:05.465Z,0
2023-03-12T05:31:46.071Z,0
2023-03-12T05:32:26.547Z,0
2023-03-12T05:33:07.027Z,0
2023-03-12T05:33:47.551Z,0
2023-03-12T05:34:27.991Z,0
2023-03-12T05:41:53.331Z,0
2023-03-12T05:42:33.813Z,0
2023-03-12T05:43:14.324Z,0
2023-03-12T05:43:54.790Z,0
2023-03-12T05:44:35.302Z,0
2023-03-12T05:45:15.765Z,0
2023-03-12T05:45:56.324Z,0
2023-03-12T05:46:36.735Z,0
2023-03-12T05:47:57.691Z,0
2023-03-12T06:31:23.872Z,0
2023-03-12T06:32:04.327Z,0
2023-03-12T06:32:44.874Z,0
2023-03-12T06:36:08.972Z,0
2023-03-12T06:38:47.431Z,0
2023-03-12T06:39:27.872Z,0
2023-03-12T06:40:08.346Z,0
2023-03-12T06:45:32.276Z,0
2023-03-12T06:46:12.771Z,0
2023-03-12T06:46:53.208Z,0
2023-03-12T06:47:34.442Z,0
2023-03-12T06:48:14.884Z,0
2023-03-12T06:48:55.365Z,0
2023-03-12T06:49:35.869Z,0
2023-03-12T06:50:16.328Z,0
2023-03-12T06:50:56.820Z,0
2023-03-12T06:58:22.143Z,0
2023-03-12T06:59:02.661Z,0
2023-03-12T06:59:43.095Z,0
2023-03-12T07:00:23.641Z,0
2023-03-12T07:01:04.082Z,0
2023-03-12T07:01:44.584Z,0
2023-03-12T07:03:05.558Z,0
2023-03-12T07:03:46.021Z,0
2023-03-12T07:04:26.512Z,0
2023-03-12T07:05:07.011Z,0
2023-03-12T07:12:32.380Z,0
2023-03-12T07:13:12.824Z,0
2023-03-12T07:13:53.311Z,0
2023-03-12T07:14:33.821Z,0
2023-03-12T07:15:14.243Z,0
2023-03-12T07:15:54.762Z,0
2023-03-12T07:16:35.345Z,0
2023-03-12T07:17:15.778Z,0
2023-03-12T07:17:56.266Z,0
2023-03-12T07:18:36.722Z,0
2023-03-12T07:26:02.253Z,0
2023-03-12T07:26:42.742Z,0
2023-03-12T07:28:03.772Z,0
2023-03-12T07:28:44.225Z,0
2023-03-12T07:29:24.761Z,5
2023-03-12T07:30:05.213Z,5
2023-03-12T07:30:45.758Z,5
2023-03-12T07:31:26.267Z,5
2023-03-12T07:32:06.702Z,5
2023-03-12T07:40:12.556Z,5
2023-03-12T07:40:53.100Z,5
2023-03-12T07:41:33.464Z,5
2023-03-12T07:42:14.021Z,5
2023-03-12T07:42:54.468Z,5
2023-03-12T07:43:34.973Z,5
2023-03-12T07:44:15.386Z,10
2023-03-12T07:45:36.393Z,10
2023-03-12T07:46:16.863Z,5
2023-03-12T07:53:42.170Z,10
2023-03-12T07:54:22.664Z,10
2023-03-12T07:55:03.215Z,5
2023-03-12T07:55:43.711Z,5
2023-03-12T07:56:24.211Z,5
2023-03-12T07:57:04.691Z,5
2023-03-12T07:57:45.621Z,5
2023-03-12T07:58:25.716Z,5
2023-03-12T07:59:06.473Z,5
2023-03-12T07:59:46.867Z,5
2023-03-12T08:07:52.477Z,5
2023-03-12T08:08:32.977Z,5
2023-03-12T08:09:13.424Z,10
2023-03-12T08:09:53.923Z,10
2023-03-12T08:10:34.440Z,10
2023-03-12T08:11:14.939Z,10
2023-03-12T08:11:55.387Z,10
2023-03-12T08:13:16.357Z,10
2023-03-12T08:13:56.824Z,5
2023-03-12T08:21:22.230Z,5
2023-03-12T08:22:02.705Z,5
2023-03-12T08:22:43.204Z,5
2023-03-12T08:23:23.703Z,5
2023-03-12T08:24:04.218Z,5
2023-03-12T08:24:44.702Z,10
2023-03-12T08:25:25.166Z,5
2023-03-12T08:26:05.750Z,5
2023-03-12T08:26:46.267Z,5
2023-03-12T08:27:26.688Z,5
2023-03-12T08:34:52.215Z,10
2023-03-12T08:35:32.726Z,10
2023-03-12T08:36:13.160Z,10
2023-03-12T08:36:53.664Z,10
2023-03-12T08:37:34.135Z,10
2023-03-12T08:38:14.623Z,10
2023-03-12T08:38:55.125Z,10
2023-03-12T08:39:35.630Z,10
2023-03-12T08:40:56.622Z,10
2023-03-12T08:41:37.105Z,10
2023-03-12T08:49:02.472Z,10
2023-03-12T08:49:42.955Z,10
2023-03-12T08:50:23.431Z,10
2023-03-12T08:51:03.969Z,10
2023-03-12T08:51:45.354Z,10
2023-03-12T08:52:25.836Z,10
2023-03-12T08:53:06.363Z,10
2023-03-12T08:53:46.816Z,10
2023-03-12T08:59:22.506Z,10
2023-03-12T09:00:02.963Z,10
2023-03-12T09:00:43.444Z,10
2023-03-12T09:06:07.355Z,10
2023-03-12T09:06:47.807Z,5
2023-03-12T09:07:28.373Z,5
2023-03-12T09:08:08.930Z,5
2023-03-12T09:08:49.399Z,5
2023-03-12T09:09:29.931Z,5
2023-03-12T09:10:10.398Z,5
2023-03-12T09:10:50.903Z,5
2023-03-12T09:11:31.388Z,5
2023-03-12T09:12:11.896Z,10
2023-03-12T09:19:37.238Z,10
2023-03-12T09:20:17.754Z,10
2023-03-12T09:20:58.217Z,10
2023-03-12T09:21:38.746Z,10
2023-03-12T09:22:19.252Z,10
2023-03-12T09:22:59.777Z,10
2023-03-12T09:23:40.210Z,10
2023-03-12T09:24:20.675Z,10
2023-03-12T09:25:01.158Z,10
2023-03-12T09:25:41.637Z,10
2023-03-12T09:26:22.190Z,15
2023-03-12T09:33:07.271Z,5
2023-03-12T09:33:47.843Z,5
2023-03-12T09:34:28.278Z,5
2023-03-12T09:35:08.844Z,5
2023-03-12T09:36:29.807Z,5
2023-03-12T09:37:10.329Z,5
2023-03-12T09:37:50.807Z,5
2023-03-12T09:38:31.288Z,5
2023-03-12T09:39:11.776Z,5
2023-03-12T09:46:37.283Z,10
2023-03-12T09:47:17.780Z,10
2023-03-12T09:47:58.256Z,5
2023-03-12T09:48:38.756Z,5
2023-03-12T09:49:20.241Z,10
2023-03-12T09:50:00.703Z,10
2023-03-12T09:50:41.188Z,10
2023-03-12T09:51:21.720Z,10
2023-03-12T09:58:47.255Z,10
2023-03-12T09:59:27.745Z,10
2023-03-12T10:00:08.282Z,10
2023-03-12T10:00:48.739Z,10
2023-03-12T10:01:29.292Z,10
2023-03-12T10:02:09.814Z,10
2023-03-12T10:02:50.297Z,10
2023-03-12T10:03:30.763Z,10
2023-03-12T10:04:11.422Z,10
2023-03-12T10:04:59.275Z,10
2023-03-12T10:10:57.292Z,15
2023-03-12T10:11:38.062Z,15
2023-03-12T10:12:19.757Z,15
2023-03-12T10:13:00.270Z,15
2023-03-12T10:13:40.815Z,15
2023-03-12T10:14:23.989Z,10
2023-03-12T10:15:02.034Z,10
2023-03-12T10:19:47.717Z,10
2023-03-12T10:20:28.317Z,10
2023-03-12T10:21:09.297Z,15
2023-03-12T10:21:49.640Z,10
2023-03-12T10:22:30.326Z,10
2023-03-12T10:23:11.296Z,10
2023-03-12T10:23:51.796Z,10
2023-03-12T10:27:57.439Z,15
2023-03-12T10:28:37.874Z,15
2023-03-12T10:29:18.494Z,20
2023-03-12T10:29:59.162Z,15
2023-03-12T10:30:39.503Z,15
2023-03-12T10:31:20.038Z,15
2023-03-12T10:32:00.639Z,15
2023-03-12T10:32:41.139Z,15
2023-03-12T10:33:21.698Z,15
2023-03-12T10:34:02.226Z,10
2023-03-12T10:37:27.421Z,15
2023-03-12T10:41:09.418Z,20
2023-03-12T10:41:49.864Z,20
2023-03-12T10:42:30.416Z,20
2023-03-12T10:43:11.074Z,20
2023-03-12T10:45:12.528Z,20
2023-03-12T10:45:52.982Z,20
2023-03-12T10:46:34.606Z,20
2023-03-12T10:47:14.025Z,15
2023-03-12T10:52:03.349Z,15
2023-03-12T10:52:44.940Z,15
2023-03-12T10:53:27.849Z,15
2023-03-12T10:54:06.096Z,15
2023-03-12T10:54:46.508Z,15
2023-03-12T10:59:32.208Z,15
2023-03-12T11:00:13.066Z,10
2023-03-12T11:00:53.493Z,10
2023-03-12T11:01:34.239Z,10
2023-03-12T11:02:14.726Z,15
2023-03-12T11:02:55.610Z,15
2023-03-12T11:03:36.676Z,15
2023-03-12T11:08:22.958Z,10
2023-03-12T11:09:16.056Z,10
2023-03-12T11:09:44.329Z,10
2023-03-12T11:10:24.873Z,10
2023-03-12T11:11:06.310Z,10
2023-03-12T11:11:46.836Z,10
2023-03-12T11:15:52.450Z,15
2023-03-12T11:16:33.355Z,20
2023-03-12T11:17:13.698Z,20
2023-03-12T11:17:54.316Z,20
2023-03-12T11:18:34.799Z,15
2023-03-12T11:20:42.185Z,15
2023-03-12T11:21:23.047Z,15
2023-03-12T11:22:04.059Z,15
2023-03-12T11:22:44.635Z,15
2023-03-12T11:23:25.071Z,15
2023-03-12T11:24:05.611Z,15
2023-03-12T11:28:12.378Z,10
2023-03-12T11:28:53.099Z,10
2023-03-12T11:29:33.684Z,15
2023-03-12T11:30:14.207Z,10
2023-03-12T11:30:54.950Z,10
2023-03-12T11:31:35.417Z,10
2023-03-12T11:32:16.184Z,10
2023-03-12T11:35:42.465Z,10
2023-03-12T11:36:25.535Z,15
2023-03-12T11:37:06.041Z,15
2023-03-12T11:37:46.826Z,15
2023-03-12T11:40:32.128Z,15
2023-03-12T11:41:12.634Z,10
2023-03-12T11:41:53.182Z,10
2023-03-12T11:42:35.348Z,15
2023-03-12T11:43:16.756Z,10
2023-03-12T11:48:02.351Z,20
2023-03-12T11:49:32.230Z,25
2023-03-12T11:50:12.537Z,25
2023-03-12T11:50:53.082Z,30
2023-03-12T11:51:34.328Z,30
2023-03-12T11:52:14.840Z,30
2023-03-12T11:52:55.324Z,35
2023-03-12T11:53:37.192Z,40
2023-03-12T12:33:59.866Z,10
2023-03-12T12:34:40.365Z,10
2023-03-12T12:35:20.835Z,10
2023-03-12T12:37:22.352Z,10
2023-03-12T12:38:02.840Z,15
2023-03-12T12:38:43.356Z,15
2023-03-12T12:39:24.438Z,30
2023-03-12T12:40:04.872Z,30
2023-03-12T12:40:45.383Z,25
2023-03-12T12:41:25.842Z,25
2023-03-12T12:42:06.360Z,25
2023-03-12T12:42:46.874Z,25
2023-03-12T12:49:32.215Z,30
2023-03-12T12:50:12.735Z,30
2023-03-12T12:50:53.239Z,30
2023-03-12T12:51:33.750Z,30
2023-03-12T12:52:14.340Z,30
2023-03-12T12:52:54.973Z,30
2023-03-12T12:53:35.506Z,25
2023-03-12T12:54:15.949Z,25
2023-03-12T12:54:56.442Z,25
2023-03-12T12:55:36.935Z,20
2023-03-12T13:02:22.197Z,15
2023-03-12T13:03:02.714Z,15
2023-03-12T13:03:43.270Z,15
2023-03-12T13:04:23.821Z,15
2023-03-12T13:05:04.481Z,15
2023-03-12T13:05:44.954Z,15
2023-03-12T13:06:25.482Z,15
2023-03-12T13:10:36.952Z,20
2023-03-12T13:11:20.541Z,20
2023-03-12T13:11:57.836Z,20
2023-03-12T13:16:01.727Z,20
2023-03-12T13:16:42.196Z,20
2023-03-12T13:17:22.685Z,15
2023-03-12T13:18:03.178Z,15
2023-03-12T13:18:43.694Z,15
2023-03-12T13:19:24.188Z,15
2023-03-12T13:20:04.738Z,15
2023-03-12T13:20:45.219Z,15
2023-03-12T13:21:25.675Z,15
2023-03-12T13:22:06.208Z,15
2023-03-12T13:29:31.747Z,25
2023-03-12T13:30:12.260Z,25
2023-03-12T13:30:52.805Z,25
2023-03-12T13:31:33.266Z,25
2023-03-12T13:32:13.731Z,25
2023-03-12T13:32:54.365Z,25
2023-03-12T13:33:34.721Z,25
2023-03-12T13:34:15.221Z,25
2023-03-12T13:34:55.834Z,25
2023-03-12T13:35:36.382Z,25
2023-03-12T13:43:01.817Z,15
2023-03-12T13:43:42.377Z,15
2023-03-12T13:44:22.848Z,10
2023-03-12T13:45:03.343Z,10
2023-03-12T13:45:43.826Z,10
2023-03-12T13:46:24.391Z,10
2023-03-12T13:47:04.836Z,10
2023-03-12T13:47:45.309Z,10
2023-03-12T13:48:25.811Z,5
2023-03-12T13:49:06.295Z,10
2023-03-12T13:55:51.789Z,10
2023-03-12T13:56:32.116Z,10
2023-03-12T13:57:12.566Z,10
2023-03-12T13:57:53.046Z,10
2023-03-12T13:58:33.570Z,10
2023-03-12T13:59:14.042Z,10
2023-03-12T13:59:54.507Z,15
2023-03-12T14:00:35.011Z,15
2023-03-12T14:01:15.550Z,15
2023-03-12T14:01:56.252Z,10
2023-03-12T14:08:41.861Z,10
2023-03-12T14:09:22.495Z,15
2023-03-12T14:10:03.058Z,15
2023-03-12T14:10:43.562Z,15
2023-03-12T14:11:24.166Z,15
2023-03-12T14:12:05.139Z,20
2023-03-12T14:12:45.704Z,20
2023-03-12T14:13:26.374Z,20
2023-03-12T14:20:51.803Z,20
2023-03-12T14:21:32.306Z,20
2023-03-12T14:22:12.876Z,15
2023-03-12T14:22:53.421Z,15
2023-03-12T14:23:33.858Z,15
2023-03-12T14:24:14.365Z,15
2023-03-12T14:24:55.058Z,15
2023-03-12T14:25:35.803Z,15
2023-03-12T14:26:16.324Z,15
2023-03-12T14:33:41.936Z,10
2023-03-12T14:34:22.435Z,10
2023-03-12T14:35:03.104Z,10
2023-03-12T14:35:43.676Z,10
2023-03-12T14:36:24.392Z,10
2023-03-12T14:37:04.834Z,10
2023-03-12T14:37:45.272Z,10
2023-03-12T14:38:25.780Z,10
2023-03-12T14:39:06.319Z,10
2023-03-12T14:45:11.469Z,15
2023-03-12T14:45:52.008Z,15
2023-03-12T14:46:32.533Z,15
2023-03-12T14:47:13.017Z,15
2023-03-12T14:47:53.614Z,15
2023-03-12T14:48:34.240Z,10
2023-03-12T14:49:14.729Z,10
2023-03-12T14:49:55.223Z,10
2023-03-12T14:50:36.197Z,10
2023-03-12T14:58:02.010Z,5
2023-03-12T14:58:42.584Z,5
2023-03-12T14:59:23.155Z,5
2023-03-12T15:00:03.611Z,5
2023-03-12T15:00:44.125Z,5
2023-03-12T15:01:24.637Z,0
2023-03-12T15:02:05.248Z,5
2023-03-12T15:02:45.599Z,5
2023-03-12T15:03:26.115Z,5
2023-03-12T15:10:51.806Z,5
2023-03-12T15:11:32.374Z,5
2023-03-12T15:12:12.888Z,10
2023-03-12T15:12:53.303Z,10
2023-03-12T15:13:33.832Z,10
2023-03-12T15:14:14.387Z,10
2023-03-12T15:15:35.537Z,10
2023-03-12T15:16:16.016Z,10
2023-03-12T15:23:41.786Z,10
2023-03-12T15:24:22.332Z,10
2023-03-12T15:25:02.909Z,10
2023-03-12T15:25:43.399Z,10
2023-03-12T15:26:23.889Z,10
2023-03-12T15:27:04.472Z,5
2023-03-12T15:29:17.405Z,5
2023-03-12T15:29:58.177Z,5
2023-03-12T15:30:38.841Z,5
2023-03-12T15:34:02.049Z,5
2023-03-12T15:34:42.598Z,5
2023-03-12T15:35:23.161Z,5
2023-03-12T15:36:03.821Z,5
2023-03-12T15:36:44.088Z,5
2023-03-12T15:37:24.610Z,0
2023-03-12T15:38:05.082Z,0
2023-03-12T15:38:45.696Z,0
2023-03-12T15:43:26.032Z,5
2023-03-12T15:44:06.497Z,5
2023-03-12T15:44:47.035Z,5
2023-03-12T15:49:30.582Z,5
2023-03-12T15:50:11.822Z,5
2023-03-12T15:50:52.329Z,5
2023-03-12T15:51:32.875Z,10
2023-03-12T15:52:13.393Z,10
2023-03-12T15:52:53.901Z,10
2023-03-12T15:53:34.406Z,10
2023-03-12T15:54:14.897Z,10
2023-03-12T15:54:55.359Z,10
2023-03-12T16:01:40.614Z,10
2023-03-12T16:02:21.106Z,10
2023-03-12T16:03:01.540Z,10
2023-03-12T16:03:42.026Z,10
2023-03-12T16:04:22.529Z,10
2023-03-12T16:05:03.036Z,10
2023-03-12T16:05:43.513Z,10
2023-03-12T16:06:24.054Z,10
2023-03-12T16:07:04.533Z,10
2023-03-12T16:07:45.086Z,10
2023-03-12T16:08:25.569Z,10
2023-03-12T16:15:10.546Z,5
2023-03-12T16:15:51.097Z,5
2023-03-12T16:16:31.677Z,5
2023-03-12T16:17:12.134Z,5
2023-03-12T16:17:52.620Z,5
2023-03-12T16:18:33.163Z,5
2023-03-12T16:19:13.665Z,5
2023-03-12T16:19:54.142Z,0
2023-03-12T16:20:34.724Z,5
2023-03-12T16:21:15.185Z,0
2023-03-12T16:28:40.892Z,5
2023-03-12T16:29:21.393Z,5
2023-03-12T16:30:01.981Z,5
2023-03-12T16:30:42.432Z,5
2023-03-12T16:31:22.941Z,5
2023-03-12T16:32:03.502Z,5
2023-03-12T16:32:43.945Z,5
2023-03-12T16:33:24.459Z,5
2023-03-12T16:34:05.815Z,5
2023-03-12T16:41:31.438Z,0
2023-03-12T16:42:11.966Z,0
2023-03-12T16:42:52.488Z,0
2023-03-12T16:43:32.995Z,0
2023-03-12T16:44:13.501Z,0
2023-03-12T16:44:54.010Z,0
2023-03-12T16:45:34.597Z,0
2023-03-12T16:46:15.152Z,0
2023-03-12T16:53:40.786Z,0
2023-03-12T16:54:21.378Z,0
2023-03-12T16:55:01.834Z,0
2023-03-12T16:55:42.376Z,0
2023-03-12T16:56:22.872Z,0
2023-03-12T16:57:03.408Z,0
2023-03-12T16:57:43.856Z,0
2023-03-12T16:59:04.837Z,0
2023-03-12T16:59:45.437Z,0
2023-03-12T17:07:10.988Z,0
2023-03-12T17:07:51.505Z,0
2023-03-12T17:08:31.961Z,0
2023-03-12T17:09:12.474Z,0
2023-03-12T17:09:52.984Z,0
2023-03-12T17:10:33.517Z,0
2023-03-12T17:11:14.052Z,0
2023-03-12T17:11:54.514Z,0
2023-03-12T17:12:35.027Z,0
2023-03-12T17:13:15.540Z,0
2023-03-12T17:20:00.641Z,0
2023-03-12T17:20:41.136Z,0
2023-03-12T17:21:21.696Z,0
2023-03-12T17:22:02.211Z,0
2023-03-12T17:22:42.679Z,0
2023-03-12T17:23:23.178Z,0
2023-03-12T17:24:03.675Z,0
2023-03-12T17:24:44.168Z,0
2023-03-12T17:25:24.667Z,0
2023-03-12T17:26:05.151Z,0
2023-03-12T17:33:30.723Z,0
2023-03-12T17:34:11.233Z,0
2023-03-12T17:34:51.721Z,0
2023-03-12T17:35:32.269Z,0
2023-03-12T17:36:12.731Z,0
2023-03-12T17:36:53.265Z,0
2023-03-12T17:37:33.792Z,0
2023-03-12T17:38:14.270Z,0
2023-03-12T17:38:54.820Z,0
2023-03-12T17:39:35.285Z,0
2023-03-12T17:47:00.914Z,0
2023-03-12T17:47:41.421Z,0
2023-03-12T17:48:21.880Z,0
2023-03-12T17:49:02.390Z,0
2023-03-12T17:49:42.893Z,0
2023-03-12T17:50:23.508Z,0
2023-03-12T17:51:03.938Z,0
2023-03-12T17:52:24.953Z,0
2023-03-12T17:53:05.461Z,0
2023-03-12T18:34:03.501Z,0
2023-03-12T18:34:43.978Z,0
2023-03-12T18:35:24.526Z,0
2023-03-12T18:40:48.545Z,0
2023-03-12T18:41:30.275Z,0
2023-03-12T18:42:09.608Z,0
2023-03-12T18:42:50.093Z,0
2023-03-12T18:43:31.374Z,0
2023-03-12T18:44:11.132Z,0
2023-03-12T18:44:51.586Z,0
2023-03-12T18:45:32.042Z,0
2023-03-12T18:46:12.554Z,0
2023-03-12T18:46:53.080Z,0
2023-03-12T18:54:18.583Z,0
2023-03-12T18:54:59.121Z,0
2023-03-12T18:55:39.616Z,0
2023-03-12T18:56:20.128Z,0
2023-03-12T18:57:00.608Z,0
2023-03-12T18:57:41.094Z,0
2023-03-12T18:58:21.632Z,0
2023-03-12T18:59:02.093Z,0
2023-03-12T18:59:42.592Z,0
2023-03-12T19:00:23.100Z,0
2023-03-12T19:07:48.533Z,0
2023-03-12T19:08:29.036Z,0
2023-03-12T19:09:09.561Z,0
2023-03-12T19:09:50.034Z,0
2023-03-12T19:10:30.540Z,0
2023-03-12T19:11:11.036Z,0
2023-03-12T19:11:51.526Z,0
2023-03-12T19:12:39.416Z,0
2023-03-12T19:13:12.504Z,0
2023-03-12T19:13:52.991Z,0
2023-03-12T19:21:18.364Z,0
2023-03-12T19:21:58.854Z,0
2023-03-12T19:22:39.343Z,0
2023-03-12T19:23:19.880Z,0
2023-03-12T19:24:01.342Z,0
2023-03-12T19:24:41.795Z,0
2023-03-12T19:25:22.264Z,0
2023-03-12T19:26:02.756Z,0
2023-03-12T19:33:28.202Z,0
2023-03-12T19:34:08.668Z,0
2023-03-12T19:34:51.138Z,0
2023-03-12T19:35:29.767Z,0
2023-03-12T19:36:10.164Z,0
2023-03-12T19:36:50.684Z,0
2023-03-12T19:37:31.132Z,0
2023-03-12T19:38:11.650Z,0
2023-03-12T19:38:52.125Z,0
2023-03-12T19:39:32.598Z,0
2023-03-12T19:40:13.129Z,0
2023-03-12T19:46:58.168Z,0
2023-03-12T19:47:38.650Z,0
2023-03-12T19:48:19.161Z,0
2023-03-12T19:48:59.672Z,0
2023-03-12T19:49:40.165Z,0
2023-03-12T19:50:20.706Z,0
2023-03-12T19:51:01.137Z,0
2023-03-12T19:51:41.668Z,0
2023-03-12T19:52:22.172Z,0
2023-03-12T19:53:02.658Z,0
2023-03-12T19:53:43.176Z,0
2023-03-12T20:00:40.235Z,0
2023-03-12T20:01:21.262Z,0
2023-03-12T20:02:01.895Z,0
2023-03-12T20:06:04.877Z,0
2023-03-12T20:06:45.478Z,0
2023-03-12T20:07:25.954Z,0
2023-03-12T20:08:06.476Z,0
2023-03-12T20:08:46.946Z,0
2023-03-12T20:09:27.470Z,0
2023-03-12T20:10:07.935Z,0
2023-03-12T20:10:48.453Z,0
2023-03-12T20:11:28.990Z,0
2023-03-12T20:12:09.455Z,0
2023-03-12T20:19:34.814Z,0
2023-03-12T20:21:47.844Z,0
2023-03-12T20:22:28.379Z,0
2023-03-12T20:23:08.849Z,0
2023-03-12T20:27:52.478Z,0
2023-03-12T20:28:32.931Z,0
2023-03-12T20:29:13.529Z,0
2023-03-12T20:29:54.048Z,0
2023-03-12T20:30:34.523Z,0
2023-03-12T20:31:15.058Z,0
2023-03-12T20:31:55.584Z,0
2023-03-12T20:32:36.172Z,0
2023-03-12T20:33:16.549Z,0
2023-03-12T20:33:57.031Z,0
2023-03-12T20:34:37.501Z,0
2023-03-12T20:41:22.476Z,0
2023-03-12T20:42:02.970Z,0
2023-03-12T20:42:43.494Z,0
2023-03-12T20:43:23.988Z,0
2023-03-12T20:44:04.527Z,0
2023-03-12T20:44:45.011Z,0
2023-03-12T20:45:25.514Z,0
2023-03-12T20:46:06.054Z,0
2023-03-12T20:46:46.520Z,0
2023-03-12T20:47:27.053Z,0
2023-03-12T20:54:52.504Z,0
2023-03-12T20:55:32.982Z,0
2023-03-12T20:56:13.487Z,0
2023-03-12T20:56:53.949Z,0
2023-03-12T20:57:34.508Z,0
2023-03-12T20:58:14.945Z,0
2023-03-12T20:59:35.945Z,0
2023-03-12T21:00:16.435Z,0
2023-03-12T21:00:56.943Z,0
2023-03-12T21:01:37.532Z,0
2023-03-12T21:07:42.876Z,0
2023-03-12T21:08:23.382Z,0
2023-03-12T21:09:03.860Z,0
2023-03-12T21:09:44.326Z,0
2023-03-12T21:10:24.808Z,0
2023-03-12T21:12:37.775Z,0
2023-03-12T21:13:18.155Z,0
2023-03-12T21:13:58.560Z,0
2023-03-12T21:14:39.043Z,0
2023-03-12T21:19:22.474Z,0
2023-03-12T21:20:02.971Z,0
2023-03-12T21:20:43.431Z,0
2023-03-12T21:21:23.921Z,0
2023-03-12T21:22:04.426Z,0
2023-03-12T21:22:44.894Z,0
2023-03-12T21:23:25.475Z,0
2023-03-12T21:24:05.867Z,0
2023-03-12T21:24:46.355Z,0
2023-03-12T21:25:26.808Z,0
2023-03-12T21:32:52.300Z,0
2023-03-12T21:33:32.751Z,0
2023-03-12T21:34:13.224Z,0
2023-03-12T21:34:53.700Z,0
2023-03-12T21:35:34.221Z,0
2023-03-12T21:36:14.687Z,0
2023-03-12T21:36:55.116Z,0
2023-03-12T21:37:35.593Z,0
2023-03-12T21:38:16.065Z,0
2023-03-12T21:38:56.597Z,0
2023-03-12T21:39:37.061Z,0
2023-03-12T21:47:02.392Z,0
2023-03-12T21:47:42.862Z,0
2023-03-12T21:48:23.345Z,0
2023-03-12T21:49:03.947Z,0
2023-03-12T21:49:44.324Z,0
2023-03-12T21:50:24.760Z,0
2023-03-12T21:51:05.254Z,0
2023-03-12T21:51:45.801Z,0
2023-03-12T21:52:26.258Z,0
2023-03-12T21:53:17.817Z,0
2023-03-12T21:53:47.151Z,0
2023-03-12T22:02:44.918Z,0
2023-03-12T22:03:25.255Z,0
2023-03-12T22:04:05.904Z,0
2023-03-12T22:09:29.711Z,0
2023-03-12T22:10:10.193Z,0
2023-03-12T22:10:50.683Z,0
2023-03-12T22:11:31.149Z,0
2023-03-12T22:12:11.647Z,0
2023-03-12T22:12:52.156Z,0
2023-03-12T22:13:32.655Z,0
2023-03-12T22:14:13.125Z,0